sensor_id;sensor_type;location;lat;lon;timestamp;P1;durP1;ratioP1;P2;durP2;ratioP2
62711;SDS011;48772;55.586;37.730;2023-04-03T00:02:08;10.43;;;6.70;;
62711;SDS011;48772;55.586;37.730;2023-04-03T00:04:33;16.50;;;8.02;;
62711;SDS011;48772;55.586;37.730;2023-04-03T00:07:03;11.88;;;7.13;;
62711;SDS011;48772;55.586;37.730;2023-04-03T00:09:29;10.80;;;6.25;;
62711;SDS011;48772;55.586;37.730;2023-04-03T00:11:54;15.85;;;8.15;;
62711;SDS011;48772;55.586;37.730;2023-04-03T00:14:20;12.90;;;8.05;;
62711;SDS011;48772;55.586;37.730;2023-04-03T00:16:46;14.05;;;7.55;;
62711;SDS011;48772;55.586;37.730;2023-04-03T00:19:11;15.82;;;7.05;;
62711;SDS011;48772;55.586;37.730;2023-04-03T00:21:37;8.75;;;6.25;;
62711;SDS011;48772;55.586;37.730;2023-04-03T00:24:04;12.50;;;6.70;;
62711;SDS011;48772;55.586;37.730;2023-04-03T00:26:30;11.65;;;6.97;;
62711;SDS011;48772;55.586;37.730;2023-04-03T00:28:55;10.90;;;7.25;;
62711;SDS011;48772;55.586;37.730;2023-04-03T00:31:21;13.40;;;7.00;;
62711;SDS011;48772;55.586;37.730;2023-04-03T00:33:47;12.85;;;7.55;;
62711;SDS011;48772;55.586;37.730;2023-04-03T00:36:13;12.20;;;7.68;;
62711;SDS011;48772;55.586;37.730;2023-04-03T00:38:39;11.65;;;7.68;;
62711;SDS011;48772;55.586;37.730;2023-04-03T00:41:04;16.80;;;7.13;;
62711;SDS011;48772;55.586;37.730;2023-04-03T00:43:32;12.80;;;7.90;;
62711;SDS011;48772;55.586;37.730;2023-04-03T00:45:58;17.70;;;7.47;;
62711;SDS011;48772;55.586;37.730;2023-04-03T00:48:26;12.68;;;7.03;;
62711;SDS011;48772;55.586;37.730;2023-04-03T00:50:56;13.30;;;7.82;;
62711;SDS011;48772;55.586;37.730;2023-04-03T00:53:24;12.95;;;8.00;;
62711;SDS011;48772;55.586;37.730;2023-04-03T00:55:54;14.88;;;7.60;;
62711;SDS011;48772;55.586;37.730;2023-04-03T00:58:22;11.07;;;6.15;;
62711;SDS011;48772;55.586;37.730;2023-04-03T01:00:57;13.10;;;7.70;;
62711;SDS011;48772;55.586;37.730;2023-04-03T01:03:25;15.50;;;7.28;;
62711;SDS011;48772;55.586;37.730;2023-04-03T01:05:54;16.55;;;9.30;;
62711;SDS011;48772;55.586;37.730;2023-04-03T01:08:19;15.13;;;8.32;;
62711;SDS011;48772;55.586;37.730;2023-04-03T01:10:45;18.70;;;8.80;;
62711;SDS011;48772;55.586;37.730;2023-04-03T01:13:22;12.00;;;7.68;;
62711;SDS011;48772;55.586;37.730;2023-04-03T01:15:53;15.38;;;8.43;;
62711;SDS011;48772;55.586;37.730;2023-04-03T01:18:22;12.10;;;7.97;;
62711;SDS011;48772;55.586;37.730;2023-04-03T01:23:33;15.30;;;8.30;;
62711;SDS011;48772;55.586;37.730;2023-04-03T01:26:21;12.63;;;7.95;;
62711;SDS011;48772;55.586;37.730;2023-04-03T01:28:48;12.70;;;7.88;;
62711;SDS011;48772;55.586;37.730;2023-04-03T01:31:22;15.93;;;7.93;;
62711;SDS011;48772;55.586;37.730;2023-04-03T01:33:53;15.35;;;8.25;;
62711;SDS011;48772;55.586;37.730;2023-04-03T01:36:25;15.80;;;7.88;;
62711;SDS011;48772;55.586;37.730;2023-04-03T01:38:54;15.85;;;8.20;;
62711;SDS011;48772;55.586;37.730;2023-04-03T01:41:21;16.75;;;9.05;;
62711;SDS011;48772;55.586;37.730;2023-04-03T01:43:48;13.18;;;8.00;;
62711;SDS011;48772;55.586;37.730;2023-04-03T01:46:17;13.32;;;8.40;;
62711;SDS011;48772;55.586;37.730;2023-04-03T01:48:44;16.90;;;9.60;;
62711;SDS011;48772;55.586;37.730;2023-04-03T01:51:10;13.52;;;9.55;;
62711;SDS011;48772;55.586;37.730;2023-04-03T01:53:36;14.85;;;9.10;;
62711;SDS011;48772;55.586;37.730;2023-04-03T01:56:05;16.02;;;8.95;;
62711;SDS011;48772;55.586;37.730;2023-04-03T01:58:32;17.27;;;8.43;;
62711;SDS011;48772;55.586;37.730;2023-04-03T02:00:58;20.73;;;9.77;;
62711;SDS011;48772;55.586;37.730;2023-04-03T02:03:25;16.25;;;8.70;;
62711;SDS011;48772;55.586;37.730;2023-04-03T02:05:51;20.67;;;9.50;;
62711;SDS011;48772;55.586;37.730;2023-04-03T02:08:17;13.23;;;9.05;;
62711;SDS011;48772;55.586;37.730;2023-04-03T02:10:49;15.43;;;9.50;;
62711;SDS011;48772;55.586;37.730;2023-04-03T02:13:17;14.02;;;9.80;;
62711;SDS011;48772;55.586;37.730;2023-04-03T02:15:44;16.63;;;9.10;;
62711;SDS011;48772;55.586;37.730;2023-04-03T02:18:10;13.82;;;7.93;;
62711;SDS011;48772;55.586;37.730;2023-04-03T02:20:36;14.50;;;8.57;;
62711;SDS011;48772;55.586;37.730;2023-04-03T02:23:02;14.32;;;8.57;;
62711;SDS011;48772;55.586;37.730;2023-04-03T02:25:28;17.08;;;9.43;;
62711;SDS011;48772;55.586;37.730;2023-04-03T02:27:56;17.63;;;9.48;;
62711;SDS011;48772;55.586;37.730;2023-04-03T02:30:22;19.05;;;8.63;;
62711;SDS011;48772;55.586;37.730;2023-04-03T02:32:48;12.90;;;9.07;;
62711;SDS011;48772;55.586;37.730;2023-04-03T02:35:14;14.13;;;9.57;;
62711;SDS011;48772;55.586;37.730;2023-04-03T02:37:40;12.68;;;8.40;;
62711;SDS011;48772;55.586;37.730;2023-04-03T02:40:06;15.85;;;8.90;;
62711;SDS011;48772;55.586;37.730;2023-04-03T02:42:33;12.75;;;8.68;;
62711;SDS011;48772;55.586;37.730;2023-04-03T02:44:59;19.42;;;9.20;;
62711;SDS011;48772;55.586;37.730;2023-04-03T02:47:29;18.30;;;10.18;;
62711;SDS011;48772;55.586;37.730;2023-04-03T02:49:55;15.00;;;9.27;;
62711;SDS011;48772;55.586;37.730;2023-04-03T02:52:20;17.35;;;10.05;;
62711;SDS011;48772;55.586;37.730;2023-04-03T02:54:47;17.48;;;10.20;;
62711;SDS011;48772;55.586;37.730;2023-04-03T02:57:13;20.17;;;10.98;;
62711;SDS011;48772;55.586;37.730;2023-04-03T02:59:39;20.77;;;11.07;;
62711;SDS011;48772;55.586;37.730;2023-04-03T03:02:07;20.30;;;10.95;;
62711;SDS011;48772;55.586;37.730;2023-04-03T03:04:34;17.27;;;10.38;;
62711;SDS011;48772;55.586;37.730;2023-04-03T03:07:00;23.27;;;10.35;;
62711;SDS011;48772;55.586;37.730;2023-04-03T03:09:27;26.80;;;11.00;;
62711;SDS011;48772;55.586;37.730;2023-04-03T03:11:55;23.20;;;11.02;;
62711;SDS011;48772;55.586;37.730;2023-04-03T03:14:21;23.73;;;10.60;;
62711;SDS011;48772;55.586;37.730;2023-04-03T03:16:48;29.50;;;13.40;;
62711;SDS011;48772;55.586;37.730;2023-04-03T03:19:13;19.02;;;11.32;;
62711;SDS011;48772;55.586;37.730;2023-04-03T03:21:39;20.50;;;10.52;;
62711;SDS011;48772;55.586;37.730;2023-04-03T03:24:05;20.60;;;11.82;;
62711;SDS011;48772;55.586;37.730;2023-04-03T03:26:32;32.85;;;12.27;;
62711;SDS011;48772;55.586;37.730;2023-04-03T03:28:58;26.50;;;12.68;;
62711;SDS011;48772;55.586;37.730;2023-04-03T03:31:23;28.13;;;13.05;;
62711;SDS011;48772;55.586;37.730;2023-04-03T03:33:49;28.42;;;12.70;;
62711;SDS011;48772;55.586;37.730;2023-04-03T03:36:15;22.48;;;12.20;;
62711;SDS011;48772;55.586;37.730;2023-04-03T03:38:41;29.13;;;12.80;;
62711;SDS011;48772;55.586;37.730;2023-04-03T03:41:08;19.90;;;11.60;;
62711;SDS011;48772;55.586;37.730;2023-04-03T03:43:34;25.88;;;11.77;;
62711;SDS011;48772;55.586;37.730;2023-04-03T03:46:02;21.33;;;11.57;;
62711;SDS011;48772;55.586;37.730;2023-04-03T03:48:28;23.40;;;12.65;;
62711;SDS011;48772;55.586;37.730;2023-04-03T03:50:54;20.70;;;11.65;;
62711;SDS011;48772;55.586;37.730;2023-04-03T03:53:23;24.25;;;12.48;;
62711;SDS011;48772;55.586;37.730;2023-04-03T03:55:52;20.38;;;12.10;;
62711;SDS011;48772;55.586;37.730;2023-04-03T03:58:20;28.90;;;14.13;;
62711;SDS011;48772;55.586;37.730;2023-04-03T04:00:46;30.27;;;13.23;;
62711;SDS011;48772;55.586;37.730;2023-04-03T04:03:12;25.10;;;12.20;;
62711;SDS011;48772;55.586;37.730;2023-04-03T04:05:39;24.65;;;12.68;;
62711;SDS011;48772;55.586;37.730;2023-04-03T04:08:05;26.17;;;13.43;;
62711;SDS011;48772;55.586;37.730;2023-04-03T04:10:31;22.45;;;11.13;;
62711;SDS011;48772;55.586;37.730;2023-04-03T04:12:58;22.65;;;11.90;;
62711;SDS011;48772;55.586;37.730;2023-04-03T04:15:25;21.08;;;11.75;;
62711;SDS011;48772;55.586;37.730;2023-04-03T04:17:53;22.88;;;9.70;;
62711;SDS011;48772;55.586;37.730;2023-04-03T04:20:21;31.42;;;13.52;;
62711;SDS011;48772;55.586;37.730;2023-04-03T04:22:47;28.67;;;13.35;;
62711;SDS011;48772;55.586;37.730;2023-04-03T04:25:13;22.98;;;12.70;;
62711;SDS011;48772;55.586;37.730;2023-04-03T04:27:40;21.27;;;12.18;;
62711;SDS011;48772;55.586;37.730;2023-04-03T04:30:06;22.67;;;13.07;;
62711;SDS011;48772;55.586;37.730;2023-04-03T04:32:33;24.15;;;13.38;;
62711;SDS011;48772;55.586;37.730;2023-04-03T04:34:59;23.23;;;13.23;;
62711;SDS011;48772;55.586;37.730;2023-04-03T04:37:28;26.77;;;13.40;;
62711;SDS011;48772;55.586;37.730;2023-04-03T04:39:53;24.27;;;13.00;;
62711;SDS011;48772;55.586;37.730;2023-04-03T04:42:19;20.38;;;11.75;;
62711;SDS011;48772;55.586;37.730;2023-04-03T04:44:47;20.05;;;11.85;;
62711;SDS011;48772;55.586;37.730;2023-04-03T04:47:14;20.65;;;10.93;;
62711;SDS011;48772;55.586;37.730;2023-04-03T04:49:41;17.88;;;10.77;;
62711;SDS011;48772;55.586;37.730;2023-04-03T04:52:07;19.25;;;11.13;;
62711;SDS011;48772;55.586;37.730;2023-04-03T04:54:33;21.67;;;11.95;;
62711;SDS011;48772;55.586;37.730;2023-04-03T04:56:59;26.20;;;12.48;;
62711;SDS011;48772;55.586;37.730;2023-04-03T04:59:26;28.20;;;11.63;;
62711;SDS011;48772;55.586;37.730;2023-04-03T05:01:54;17.67;;;10.70;;
62711;SDS011;48772;55.586;37.730;2023-04-03T05:04:20;22.60;;;11.77;;
62711;SDS011;48772;55.586;37.730;2023-04-03T05:06:50;33.10;;;12.15;;
62711;SDS011;48772;55.586;37.730;2023-04-03T05:09:20;30.60;;;12.45;;
62711;SDS011;48772;55.586;37.730;2023-04-03T05:11:48;28.77;;;12.35;;
62711;SDS011;48772;55.586;37.730;2023-04-03T05:17:19;22.52;;;12.43;;
62711;SDS011;48772;55.586;37.730;2023-04-03T05:19:49;27.77;;;11.95;;
62711;SDS011;48772;55.586;37.730;2023-04-03T05:22:16;21.15;;;11.13;;
62711;SDS011;48772;55.586;37.730;2023-04-03T05:24:42;28.67;;;12.07;;
62711;SDS011;48772;55.586;37.730;2023-04-03T05:29:55;26.70;;;13.07;;
62711;SDS011;48772;55.586;37.730;2023-04-03T05:32:22;22.33;;;13.07;;
62711;SDS011;48772;55.586;37.730;2023-04-03T05:34:55;24.15;;;12.75;;
62711;SDS011;48772;55.586;37.730;2023-04-03T05:37:21;31.40;;;12.52;;
62711;SDS011;48772;55.586;37.730;2023-04-03T05:39:48;27.77;;;12.60;;
62711;SDS011;48772;55.586;37.730;2023-04-03T05:42:15;31.50;;;11.85;;
62711;SDS011;48772;55.586;37.730;2023-04-03T05:44:42;26.48;;;11.35;;
62711;SDS011;48772;55.586;37.730;2023-04-03T05:47:08;17.58;;;10.43;;
62711;SDS011;48772;55.586;37.730;2023-04-03T05:49:34;25.05;;;10.48;;
62711;SDS011;48772;55.586;37.730;2023-04-03T05:52:01;24.52;;;10.40;;
62711;SDS011;48772;55.586;37.730;2023-04-03T05:54:29;24.00;;;10.00;;
62711;SDS011;48772;55.586;37.730;2023-04-03T05:57:03;25.17;;;10.93;;
62711;SDS011;48772;55.586;37.730;2023-04-03T05:59:29;24.33;;;10.85;;
62711;SDS011;48772;55.586;37.730;2023-04-03T06:01:57;31.17;;;10.93;;
62711;SDS011;48772;55.586;37.730;2023-04-03T06:04:23;21.48;;;10.60;;
62711;SDS011;48772;55.586;37.730;2023-04-03T06:06:53;32.10;;;10.75;;
62711;SDS011;48772;55.586;37.730;2023-04-03T06:09:22;21.60;;;10.77;;
62711;SDS011;48772;55.586;37.730;2023-04-03T06:11:49;26.92;;;12.40;;
62711;SDS011;48772;55.586;37.730;2023-04-03T06:14:16;28.45;;;11.52;;
62711;SDS011;48772;55.586;37.730;2023-04-03T06:16:41;30.45;;;10.65;;
62711;SDS011;48772;55.586;37.730;2023-04-03T06:19:09;18.23;;;10.35;;
62711;SDS011;48772;55.586;37.730;2023-04-03T06:21:39;19.63;;;10.80;;
62711;SDS011;48772;55.586;37.730;2023-04-03T06:24:05;24.05;;;10.82;;
62711;SDS011;48772;55.586;37.730;2023-04-03T06:26:33;24.45;;;10.02;;
62711;SDS011;48772;55.586;37.730;2023-04-03T06:28:59;28.90;;;11.52;;
62711;SDS011;48772;55.586;37.730;2023-04-03T06:31:25;35.08;;;12.68;;
62711;SDS011;48772;55.586;37.730;2023-04-03T06:33:51;38.15;;;12.18;;
62711;SDS011;48772;55.586;37.730;2023-04-03T06:36:18;39.38;;;12.95;;
62711;SDS011;48772;55.586;37.730;2023-04-03T06:38:46;32.40;;;12.98;;
62711;SDS011;48772;55.586;37.730;2023-04-03T06:41:12;32.30;;;13.65;;
62711;SDS011;48772;55.586;37.730;2023-04-03T06:43:38;27.42;;;13.30;;
62711;SDS011;48772;55.586;37.730;2023-04-03T06:46:04;31.00;;;11.73;;
62711;SDS011;48772;55.586;37.730;2023-04-03T06:48:30;24.85;;;12.07;;
62711;SDS011;48772;55.586;37.730;2023-04-03T06:50:56;33.38;;;11.68;;
62711;SDS011;48772;55.586;37.730;2023-04-03T06:53:22;24.35;;;10.90;;
62711;SDS011;48772;55.586;37.730;2023-04-03T06:55:48;31.08;;;11.85;;
62711;SDS011;48772;55.586;37.730;2023-04-03T06:58:13;40.15;;;12.40;;
62711;SDS011;48772;55.586;37.730;2023-04-03T07:00:40;33.33;;;12.23;;
62711;SDS011;48772;55.586;37.730;2023-04-03T07:03:06;41.97;;;11.88;;
62711;SDS011;48772;55.586;37.730;2023-04-03T07:05:32;36.47;;;11.50;;
62711;SDS011;48772;55.586;37.730;2023-04-03T07:07:58;34.35;;;11.77;;
62711;SDS011;48772;55.586;37.730;2023-04-03T07:10:24;43.63;;;12.48;;
62711;SDS011;48772;55.586;37.730;2023-04-03T07:12:50;45.97;;;13.52;;
62711;SDS011;48772;55.586;37.730;2023-04-03T07:15:16;49.60;;;12.48;;
62711;SDS011;48772;55.586;37.730;2023-04-03T07:17:42;38.25;;;12.07;;
62711;SDS011;48772;55.586;37.730;2023-04-03T07:20:08;34.00;;;11.30;;
62711;SDS011;48772;55.586;37.730;2023-04-03T07:22:34;26.80;;;11.10;;
62711;SDS011;48772;55.586;37.730;2023-04-03T07:25:00;26.95;;;12.38;;
62711;SDS011;48772;55.586;37.730;2023-04-03T07:27:26;33.80;;;12.10;;
62711;SDS011;48772;55.586;37.730;2023-04-03T07:29:52;22.67;;;12.40;;
62711;SDS011;48772;55.586;37.730;2023-04-03T07:32:17;21.23;;;11.85;;
62711;SDS011;48772;55.586;37.730;2023-04-03T07:34:43;25.77;;;12.70;;
62711;SDS011;48772;55.586;37.730;2023-04-03T07:37:09;27.73;;;13.48;;
62711;SDS011;48772;55.586;37.730;2023-04-03T07:39:35;24.40;;;13.80;;
62711;SDS011;48772;55.586;37.730;2023-04-03T07:42:01;29.05;;;14.95;;
62711;SDS011;48772;55.586;37.730;2023-04-03T07:44:27;26.80;;;14.25;;
62711;SDS011;48772;55.586;37.730;2023-04-03T07:46:53;29.17;;;14.10;;
62711;SDS011;48772;55.586;37.730;2023-04-03T07:49:21;30.80;;;13.93;;
62711;SDS011;48772;55.586;37.730;2023-04-03T07:51:49;25.05;;;14.30;;
62711;SDS011;48772;55.586;37.730;2023-04-03T07:54:15;21.73;;;14.32;;
62711;SDS011;48772;55.586;37.730;2023-04-03T07:56:41;23.05;;;12.68;;
62711;SDS011;48772;55.586;37.730;2023-04-03T07:59:08;21.30;;;14.00;;
62711;SDS011;48772;55.586;37.730;2023-04-03T08:01:35;20.13;;;12.88;;
62711;SDS011;48772;55.586;37.730;2023-04-03T08:04:01;24.30;;;13.63;;
62711;SDS011;48772;55.586;37.730;2023-04-03T08:06:28;19.50;;;12.48;;
62711;SDS011;48772;55.586;37.730;2023-04-03T08:09:00;22.38;;;11.57;;
62711;SDS011;48772;55.586;37.730;2023-04-03T08:11:27;21.45;;;12.82;;
62711;SDS011;48772;55.586;37.730;2023-04-03T08:13:53;23.88;;;13.00;;
62711;SDS011;48772;55.586;37.730;2023-04-03T08:16:21;20.08;;;12.98;;
62711;SDS011;48772;55.586;37.730;2023-04-03T08:18:51;31.95;;;13.10;;
62711;SDS011;48772;55.586;37.730;2023-04-03T08:21:17;23.63;;;13.32;;
62711;SDS011;48772;55.586;37.730;2023-04-03T08:23:43;28.42;;;13.43;;
62711;SDS011;48772;55.586;37.730;2023-04-03T08:26:10;26.17;;;13.20;;
62711;SDS011;48772;55.586;37.730;2023-04-03T08:28:40;24.60;;;13.02;;
62711;SDS011;48772;55.586;37.730;2023-04-03T08:31:07;27.08;;;14.23;;
62711;SDS011;48772;55.586;37.730;2023-04-03T08:33:37;30.00;;;13.95;;
62711;SDS011;48772;55.586;37.730;2023-04-03T08:36:04;33.28;;;14.35;;
62711;SDS011;48772;55.586;37.730;2023-04-03T08:38:32;23.85;;;13.60;;
62711;SDS011;48772;55.586;37.730;2023-04-03T08:41:25;28.00;;;14.02;;
62711;SDS011;48772;55.586;37.730;2023-04-03T08:49:22;33.47;;;15.65;;
62711;SDS011;48772;55.586;37.730;2023-04-03T08:51:56;31.02;;;15.13;;
62711;SDS011;48772;55.586;37.730;2023-04-03T08:54:30;31.60;;;14.82;;
62711;SDS011;48772;55.586;37.730;2023-04-03T08:56:59;24.65;;;14.18;;
62711;SDS011;48772;55.586;37.730;2023-04-03T08:59:37;31.75;;;15.15;;
62711;SDS011;48772;55.586;37.730;2023-04-03T09:02:13;23.75;;;15.23;;
62711;SDS011;48772;55.586;37.730;2023-04-03T09:05:01;31.67;;;15.60;;
62711;SDS011;48772;55.586;37.730;2023-04-03T09:10:33;32.38;;;14.70;;
62711;SDS011;48772;55.586;37.730;2023-04-03T09:13:06;28.90;;;15.07;;
62711;SDS011;48772;55.586;37.730;2023-04-03T09:15:39;30.25;;;14.43;;
62711;SDS011;48772;55.586;37.730;2023-04-03T09:18:23;26.50;;;14.57;;
62711;SDS011;48772;55.586;37.730;2023-04-03T09:23:52;26.55;;;13.38;;
62711;SDS011;48772;55.586;37.730;2023-04-03T09:28:51;30.80;;;14.48;;
62711;SDS011;48772;55.586;37.730;2023-04-03T09:31:25;26.52;;;14.05;;
62711;SDS011;48772;55.586;37.730;2023-04-03T09:33:53;25.08;;;12.93;;
62711;SDS011;48772;55.586;37.730;2023-04-03T09:36:39;25.30;;;13.82;;
62711;SDS011;48772;55.586;37.730;2023-04-03T09:39:18;28.90;;;12.98;;
62711;SDS011;48772;55.586;37.730;2023-04-03T09:42:02;23.38;;;12.10;;
62711;SDS011;48772;55.586;37.730;2023-04-03T09:44:35;20.98;;;12.88;;
62711;SDS011;48772;55.586;37.730;2023-04-03T09:47:44;23.05;;;12.82;;
62711;SDS011;48772;55.586;37.730;2023-04-03T09:52:46;32.83;;;12.48;;
62711;SDS011;48772;55.586;37.730;2023-04-03T09:55:18;24.52;;;11.75;;
62711;SDS011;48772;55.586;37.730;2023-04-03T09:57:57;29.80;;;12.18;;
62711;SDS011;48772;55.586;37.730;2023-04-03T10:02:58;22.63;;;11.40;;
62711;SDS011;48772;55.586;37.730;2023-04-03T10:08:19;23.23;;;11.63;;
62711;SDS011;48772;55.586;37.730;2023-04-03T10:11:07;22.85;;;11.38;;
62711;SDS011;48772;55.586;37.730;2023-04-03T10:13:57;21.95;;;12.00;;
62711;SDS011;48772;55.586;37.730;2023-04-03T10:16:26;21.65;;;11.40;;
62711;SDS011;48772;55.586;37.730;2023-04-03T10:25:17;20.73;;;11.82;;
62711;SDS011;48772;55.586;37.730;2023-04-03T10:28:02;23.52;;;13.10;;
62711;SDS011;48772;55.586;37.730;2023-04-03T10:30:47;26.08;;;13.23;;
62711;SDS011;48772;55.586;37.730;2023-04-03T10:48:16;21.60;;;9.98;;
62711;SDS011;48772;55.586;37.730;2023-04-03T10:53:48;22.23;;;10.80;;
62711;SDS011;48772;55.586;37.730;2023-04-03T10:58:58;17.70;;;10.65;;
62711;SDS011;48772;55.586;37.730;2023-04-03T11:01:30;20.75;;;10.23;;
62711;SDS011;48772;55.586;37.730;2023-04-03T11:03:59;23.63;;;10.50;;
62711;SDS011;48772;55.586;37.730;2023-04-03T11:06:36;23.58;;;10.70;;
62711;SDS011;48772;55.586;37.730;2023-04-03T11:09:12;20.05;;;8.20;;
62711;SDS011;48772;55.586;37.730;2023-04-03T11:11:47;15.43;;;10.43;;
62711;SDS011;48772;55.586;37.730;2023-04-03T11:14:31;21.23;;;9.27;;
62711;SDS011;48772;55.586;37.730;2023-04-03T11:17:08;17.48;;;9.05;;
62711;SDS011;48772;55.586;37.730;2023-04-03T11:30:27;14.45;;;7.70;;
62711;SDS011;48772;55.586;37.730;2023-04-03T11:33:04;17.98;;;7.22;;
62711;SDS011;48772;55.586;37.730;2023-04-03T11:35:52;14.40;;;6.78;;
62711;SDS011;48772;55.586;37.730;2023-04-03T11:38:23;13.25;;;6.55;;
62711;SDS011;48772;55.586;37.730;2023-04-03T11:40:55;10.98;;;6.28;;
62711;SDS011;48772;55.586;37.730;2023-04-03T11:43:24;10.02;;;6.60;;
62711;SDS011;48772;55.586;37.730;2023-04-03T11:51:01;11.73;;;5.30;;
62711;SDS011;48772;55.586;37.730;2023-04-03T11:53:47;13.27;;;6.70;;
62711;SDS011;48772;55.586;37.730;2023-04-03T12:04:15;12.07;;;6.40;;
62711;SDS011;48772;55.586;37.730;2023-04-03T12:06:48;10.98;;;5.30;;
62711;SDS011;48772;55.586;37.730;2023-04-03T12:09:25;14.35;;;5.75;;
62711;SDS011;48772;55.586;37.730;2023-04-03T12:11:52;18.33;;;6.28;;
62711;SDS011;48772;55.586;37.730;2023-04-03T12:14:22;14.50;;;5.75;;
62711;SDS011;48772;55.586;37.730;2023-04-03T12:16:55;17.00;;;6.05;;
62711;SDS011;48772;55.586;37.730;2023-04-03T12:24:29;15.68;;;7.55;;
62711;SDS011;48772;55.586;37.730;2023-04-03T12:32:18;19.50;;;7.45;;
62711;SDS011;48772;55.586;37.730;2023-04-03T12:48:28;21.63;;;6.97;;
62711;SDS011;48772;55.586;37.730;2023-04-03T12:50:57;16.17;;;6.28;;
62711;SDS011;48772;55.586;37.730;2023-04-03T12:53:28;13.10;;;6.40;;
62711;SDS011;48772;55.586;37.730;2023-04-03T12:58:46;8.10;;;5.40;;
62711;SDS011;48772;55.586;37.730;2023-04-03T13:01:13;8.63;;;5.32;;
62711;SDS011;48772;55.586;37.730;2023-04-03T13:04:16;11.82;;;6.25;;
62711;SDS011;48772;55.586;37.730;2023-04-03T13:06:38;15.35;;;6.43;;
62711;SDS011;48772;55.586;37.730;2023-04-03T13:09:21;12.25;;;6.13;;
62711;SDS011;48772;55.586;37.730;2023-04-03T13:11:56;10.93;;;6.38;;
62711;SDS011;48772;55.586;37.730;2023-04-03T13:14:23;12.00;;;5.72;;
62711;SDS011;48772;55.586;37.730;2023-04-03T13:17:26;13.30;;;6.88;;
62711;SDS011;48772;55.586;37.730;2023-04-03T13:19:46;11.05;;;5.40;;
62711;SDS011;48772;55.586;37.730;2023-04-03T13:22:29;18.67;;;6.70;;
62711;SDS011;48772;55.586;37.730;2023-04-03T13:25:16;17.92;;;7.30;;
62711;SDS011;48772;55.586;37.730;2023-04-03T13:27:44;14.18;;;6.80;;
62711;SDS011;48772;55.586;37.730;2023-04-03T13:33:27;15.70;;;6.35;;
62711;SDS011;48772;55.586;37.730;2023-04-03T13:36:18;20.67;;;6.70;;
62711;SDS011;48772;55.586;37.730;2023-04-03T13:38:59;18.67;;;7.47;;
62711;SDS011;48772;55.586;37.730;2023-04-03T13:41:38;19.60;;;8.30;;
62711;SDS011;48772;55.586;37.730;2023-04-03T13:46:58;17.90;;;8.68;;
62711;SDS011;48772;55.586;37.730;2023-04-03T13:49:29;13.65;;;7.80;;
62711;SDS011;48772;55.586;37.730;2023-04-03T13:52:20;16.70;;;7.85;;
62711;SDS011;48772;55.586;37.730;2023-04-03T13:54:57;22.30;;;8.55;;
62711;SDS011;48772;55.586;37.730;2023-04-03T13:57:25;17.15;;;8.15;;
62711;SDS011;48772;55.586;37.730;2023-04-03T13:59:51;16.02;;;8.15;;
62711;SDS011;48772;55.586;37.730;2023-04-03T14:02:22;14.75;;;8.07;;
62711;SDS011;48772;55.586;37.730;2023-04-03T14:05:07;18.15;;;8.65;;
62711;SDS011;48772;55.586;37.730;2023-04-03T14:07:33;17.88;;;9.23;;
62711;SDS011;48772;55.586;37.730;2023-04-03T14:09:59;29.70;;;9.45;;
62711;SDS011;48772;55.586;37.730;2023-04-03T14:12:30;19.50;;;9.45;;
62711;SDS011;48772;55.586;37.730;2023-04-03T14:15:02;24.00;;;11.13;;
62711;SDS011;48772;55.586;37.730;2023-04-03T14:17:30;24.90;;;10.60;;
62711;SDS011;48772;55.586;37.730;2023-04-03T14:20:01;27.42;;;10.13;;
62711;SDS011;48772;55.586;37.730;2023-04-03T14:22:32;20.88;;;9.30;;
62711;SDS011;48772;55.586;37.730;2023-04-03T14:25:00;15.32;;;7.70;;
62711;SDS011;48772;55.586;37.730;2023-04-03T14:27:27;14.80;;;7.82;;
62711;SDS011;48772;55.586;37.730;2023-04-03T14:30:00;15.10;;;7.93;;
62711;SDS011;48772;55.586;37.730;2023-04-03T14:35:20;20.80;;;7.63;;
62711;SDS011;48772;55.586;37.730;2023-04-03T14:37:47;21.48;;;7.82;;
62711;SDS011;48772;55.586;37.730;2023-04-03T14:40:15;11.73;;;6.82;;
62711;SDS011;48772;55.586;37.730;2023-04-03T14:42:43;18.13;;;7.55;;
62711;SDS011;48772;55.586;37.730;2023-04-03T14:45:11;14.85;;;8.00;;
62711;SDS011;48772;55.586;37.730;2023-04-03T14:47:42;14.02;;;7.13;;
62711;SDS011;48772;55.586;37.730;2023-04-03T14:50:14;16.70;;;7.22;;
62711;SDS011;48772;55.586;37.730;2023-04-03T14:52:43;23.90;;;7.80;;
62711;SDS011;48772;55.586;37.730;2023-04-03T14:55:11;18.77;;;7.63;;
62711;SDS011;48772;55.586;37.730;2023-04-03T14:57:39;24.20;;;8.40;;
62711;SDS011;48772;55.586;37.730;2023-04-03T15:00:07;19.65;;;7.95;;
62711;SDS011;48772;55.586;37.730;2023-04-03T15:02:38;18.35;;;8.65;;
62711;SDS011;48772;55.586;37.730;2023-04-03T15:05:05;17.38;;;9.88;;
62711;SDS011;48772;55.586;37.730;2023-04-03T15:07:34;16.80;;;9.15;;
62711;SDS011;48772;55.586;37.730;2023-04-03T15:12:51;18.05;;;8.45;;
62711;SDS011;48772;55.586;37.730;2023-04-03T15:15:18;21.05;;;8.48;;
62711;SDS011;48772;55.586;37.730;2023-04-03T15:17:45;17.50;;;8.25;;
62711;SDS011;48772;55.586;37.730;2023-04-03T15:20:16;19.52;;;8.68;;
62711;SDS011;48772;55.586;37.730;2023-04-03T15:22:44;16.85;;;8.75;;
62711;SDS011;48772;55.586;37.730;2023-04-03T15:25:11;16.95;;;8.88;;
62711;SDS011;48772;55.586;37.730;2023-04-03T15:27:38;29.90;;;11.13;;
62711;SDS011;48772;55.586;37.730;2023-04-03T15:30:07;24.02;;;12.50;;
62711;SDS011;48772;55.586;37.730;2023-04-03T15:32:36;21.75;;;13.15;;
62711;SDS011;48772;55.586;37.730;2023-04-03T15:35:02;21.50;;;12.52;;
62711;SDS011;48772;55.586;37.730;2023-04-03T15:37:28;37.17;;;13.35;;
62711;SDS011;48772;55.586;37.730;2023-04-03T15:39:55;28.38;;;13.77;;
62711;SDS011;48772;55.586;37.730;2023-04-03T15:42:21;26.23;;;12.25;;
62711;SDS011;48772;55.586;37.730;2023-04-03T15:44:46;21.65;;;12.10;;
62711;SDS011;48772;55.586;37.730;2023-04-03T15:47:13;27.70;;;10.68;;
62711;SDS011;48772;55.586;37.730;2023-04-03T15:49:39;22.30;;;11.57;;
62711;SDS011;48772;55.586;37.730;2023-04-03T15:52:05;29.92;;;11.48;;
62711;SDS011;48772;55.586;37.730;2023-04-03T15:54:31;28.90;;;11.40;;
62711;SDS011;48772;55.586;37.730;2023-04-03T15:56:59;20.90;;;9.32;;
62711;SDS011;48772;55.586;37.730;2023-04-03T15:59:25;23.42;;;10.23;;
62711;SDS011;48772;55.586;37.730;2023-04-03T16:01:51;29.23;;;9.70;;
62711;SDS011;48772;55.586;37.730;2023-04-03T16:04:18;25.58;;;9.55;;
62711;SDS011;48772;55.586;37.730;2023-04-03T16:06:46;26.20;;;9.73;;
62711;SDS011;48772;55.586;37.730;2023-04-03T16:09:12;19.52;;;8.68;;
62711;SDS011;48772;55.586;37.730;2023-04-03T16:11:38;17.00;;;8.52;;
62711;SDS011;48772;55.586;37.730;2023-04-03T16:14:08;27.85;;;9.55;;
62711;SDS011;48772;55.586;37.730;2023-04-03T16:16:34;19.50;;;8.70;;
62711;SDS011;48772;55.586;37.730;2023-04-03T16:19:00;24.08;;;9.57;;
62711;SDS011;48772;55.586;37.730;2023-04-03T16:21:27;23.77;;;10.93;;
62711;SDS011;48772;55.586;37.730;2023-04-03T16:23:56;26.20;;;12.25;;
62711;SDS011;48772;55.586;37.730;2023-04-03T16:26:23;30.98;;;12.60;;